sensor_id;sensor_type;location;lat;lon;timestamp;P1;durP1;ratioP1;P2;durP2;ratioP2
20104;SDS011;10212;42.714;23.310;2023-02-01T00:15:54;8.05;;;6.03;;
20104;SDS011;10212;42.714;23.310;2023-02-01T00:25:54;8.43;;;6.00;;
20104;SDS011;10212;42.714;23.310;2023-02-01T00:35:58;6.97;;;5.25;;
20104;SDS011;10212;42.714;23.310;2023-02-01T00:46:00;6.22;;;4.90;;
20104;SDS011;10212;42.714;23.310;2023-02-01T00:56:01;5.78;;;4.30;;
20104;SDS011;10212;42.714;23.310;2023-02-01T01:06:04;7.25;;;4.70;;
20104;SDS011;10212;42.714;23.310;2023-02-01T01:16:07;6.13;;;4.10;;
20104;SDS011;10212;42.714;23.310;2023-02-01T01:26:15;6.32;;;3.60;;
20104;SDS011;10212;42.714;23.310;2023-02-01T01:36:18;5.80;;;3.58;;
20104;SDS011;10212;42.714;23.310;2023-02-01T01:46:20;6.28;;;3.30;;
20104;SDS011;10212;42.714;23.310;2023-02-01T01:56:25;6.70;;;3.50;;
20104;SDS011;10212;42.714;23.310;2023-02-01T02:06:31;6.97;;;3.40;;
20104;SDS011;10212;42.714;23.310;2023-02-01T02:47:43;6.68;;;3.72;;
20104;SDS011;10212;42.714;23.310;2023-02-01T02:57:49;5.85;;;3.60;;
20104;SDS011;10212;42.714;23.310;2023-02-01T03:18:24;5.07;;;2.60;;
20104;SDS011;10212;42.714;23.310;2023-02-01T03:28:30;3.10;;;2.58;;
20104;SDS011;10212;42.714;23.310;2023-02-01T03:38:49;6.07;;;3.03;;
20104;SDS011;10212;42.714;23.310;2023-02-01T03:48:57;8.55;;;3.20;;
20104;SDS011;10212;42.714;23.310;2023-02-01T03:58:59;5.43;;;3.33;;
20104;SDS011;10212;42.714;23.310;2023-02-01T04:09:03;6.05;;;2.80;;
20104;SDS011;10212;42.714;23.310;2023-02-01T04:19:06;4.13;;;2.38;;
20104;SDS011;10212;42.714;23.310;2023-02-01T04:29:08;3.08;;;2.60;;
20104;SDS011;10212;42.714;23.310;2023-02-01T04:39:11;4.38;;;2.88;;
20104;SDS011;10212;42.714;23.310;2023-02-01T04:49:14;3.97;;;2.70;;
20104;SDS011;10212;42.714;23.310;2023-02-01T04:59:15;6.60;;;3.10;;
20104;SDS011;10212;42.714;23.310;2023-02-01T05:09:15;6.95;;;3.63;;
20104;SDS011;10212;42.714;23.310;2023-02-01T05:19:16;6.00;;;3.92;;
20104;SDS011;10212;42.714;23.310;2023-02-01T05:29:17;7.05;;;4.20;;
20104;SDS011;10212;42.714;23.310;2023-02-01T05:39:17;6.80;;;3.80;;
20104;SDS011;10212;42.714;23.310;2023-02-01T05:49:21;7.93;;;4.03;;
20104;SDS011;10212;42.714;23.310;2023-02-01T05:59:43;6.45;;;4.20;;
20104;SDS011;10212;42.714;23.310;2023-02-01T06:10:12;6.45;;;3.17;;
20104;SDS011;10212;42.714;23.310;2023-02-01T06:20:13;8.18;;;3.33;;
20104;SDS011;10212;42.714;23.310;2023-02-01T06:30:15;5.32;;;2.90;;
20104;SDS011;10212;42.714;23.310;2023-02-01T06:40:16;6.35;;;3.40;;
20104;SDS011;10212;42.714;23.310;2023-02-01T06:50:16;6.43;;;3.28;;
20104;SDS011;10212;42.714;23.310;2023-02-01T07:00:17;5.60;;;2.90;;
20104;SDS011;10212;42.714;23.310;2023-02-01T07:10:18;6.28;;;2.90;;
20104;SDS011;10212;42.714;23.310;2023-02-01T07:20:18;9.20;;;3.10;;
20104;SDS011;10212;42.714;23.310;2023-02-01T07:30:19;5.63;;;2.67;;
20104;SDS011;10212;42.714;23.310;2023-02-01T07:40:19;5.60;;;2.65;;
20104;SDS011;10212;42.714;23.310;2023-02-01T07:50:24;8.85;;;2.88;;
20104;SDS011;10212;42.714;23.310;2023-02-01T08:00:25;4.82;;;3.00;;
20104;SDS011;10212;42.714;23.310;2023-02-01T08:10:44;7.27;;;3.13;;
20104;SDS011;10212;42.714;23.310;2023-02-01T08:20:45;6.43;;;3.00;;
20104;SDS011;10212;42.714;23.310;2023-02-01T08:30:48;8.68;;;2.83;;
20104;SDS011;10212;42.714;23.310;2023-02-01T08:40:48;7.07;;;2.40;;
20104;SDS011;10212;42.714;23.310;2023-02-01T08:50:49;5.13;;;2.33;;
20104;SDS011;10212;42.714;23.310;2023-02-01T09:00:49;6.25;;;3.03;;
20104;SDS011;10212;42.714;23.310;2023-02-01T09:10:50;5.95;;;2.30;;
20104;SDS011;10212;42.714;23.310;2023-02-01T09:20:51;5.55;;;2.47;;
20104;SDS011;10212;42.714;23.310;2023-02-01T09:30:55;6.38;;;2.67;;
20104;SDS011;10212;42.714;23.310;2023-02-01T09:40:59;5.15;;;2.17;;
20104;SDS011;10212;42.714;23.310;2023-02-01T09:51:02;4.00;;;2.10;;
20104;SDS011;10212;42.714;23.310;2023-02-01T10:01:22;2.65;;;1.60;;
20104;SDS011;10212;42.714;23.310;2023-02-01T10:11:35;6.90;;;2.58;;
20104;SDS011;10212;42.714;23.310;2023-02-01T10:21:51;2.83;;;2.10;;
20104;SDS011;10212;42.714;23.310;2023-02-01T10:31:58;4.53;;;2.63;;
20104;SDS011;10212;42.714;23.310;2023-02-01T10:41:59;7.35;;;1.95;;
20104;SDS011;10212;42.714;23.310;2023-02-01T10:52:05;5.18;;;2.00;;
20104;SDS011;10212;42.714;23.310;2023-02-01T11:02:31;7.43;;;2.25;;
20104;SDS011;10212;42.714;23.310;2023-02-01T11:12:35;5.03;;;2.03;;
20104;SDS011;10212;42.714;23.310;2023-02-01T11:22:37;3.45;;;1.52;;
20104;SDS011;10212;42.714;23.310;2023-02-01T11:32:46;2.83;;;1.83;;
20104;SDS011;10212;42.714;23.310;2023-02-01T11:42:58;2.17;;;1.58;;
20104;SDS011;10212;42.714;23.310;2023-02-01T12:13:20;4.05;;;1.85;;
20104;SDS011;10212;42.714;23.310;2023-02-01T13:14:37;4.30;;;1.48;;
20104;SDS011;10212;42.714;23.310;2023-02-01T14:15:25;3.35;;;1.90;;
20104;SDS011;10212;42.714;23.310;2023-02-01T14:25:31;3.60;;;1.75;;
20104;SDS011;10212;42.714;23.310;2023-02-01T14:35:32;3.85;;;1.60;;
20104;SDS011;10212;42.714;23.310;2023-02-01T15:05:56;3.70;;;2.08;;
20104;SDS011;10212;42.714;23.310;2023-02-01T15:16:11;3.60;;;1.85;;
20104;SDS011;10212;42.714;23.310;2023-02-01T15:26:30;4.20;;;2.25;;
20104;SDS011;10212;42.714;23.310;2023-02-01T15:36:31;5.55;;;2.10;;
20104;SDS011;10212;42.714;23.310;2023-02-01T15:46:39;5.28;;;2.95;;
20104;SDS011;10212;42.714;23.310;2023-02-01T15:56:44;9.70;;;3.30;;
20104;SDS011;10212;42.714;23.310;2023-02-01T16:06:53;7.10;;;3.38;;
20104;SDS011;10212;42.714;23.310;2023-02-01T16:16:57;8.15;;;2.95;;
20104;SDS011;10212;42.714;23.310;2023-02-01T16:26:58;7.28;;;2.67;;
20104;SDS011;10212;42.714;23.310;2023-02-01T16:36:58;8.27;;;3.15;;
20104;SDS011;10212;42.714;23.310;2023-02-01T16:47:00;7.72;;;2.78;;
20104;SDS011;10212;42.714;23.310;2023-02-01T16:57:00;8.85;;;4.40;;
20104;SDS011;10212;42.714;23.310;2023-02-01T17:07:01;8.52;;;4.90;;
20104;SDS011;10212;42.714;23.310;2023-02-01T17:17:08;6.47;;;3.45;;
20104;SDS011;10212;42.714;23.310;2023-02-01T17:27:09;5.85;;;2.90;;
20104;SDS011;10212;42.714;23.310;2023-02-01T17:37:32;7.47;;;3.63;;
20104;SDS011;10212;42.714;23.310;2023-02-01T17:47:32;9.50;;;3.65;;
20104;SDS011;10212;42.714;23.310;2023-02-01T17:57:33;7.72;;;4.10;;
20104;SDS011;10212;42.714;23.310;2023-02-01T18:07:33;8.05;;;3.40;;
20104;SDS011;10212;42.714;23.310;2023-02-01T18:17:35;14.35;;;6.22;;
20104;SDS011;10212;42.714;23.310;2023-02-01T18:27:35;19.13;;;8.88;;
20104;SDS011;10212;42.714;23.310;2023-02-01T18:37:36;24.08;;;11.35;;
20104;SDS011;10212;42.714;23.310;2023-02-01T18:47:38;22.13;;;9.88;;
20104;SDS011;10212;42.714;23.310;2023-02-01T18:57:39;16.40;;;7.95;;
20104;SDS011;10212;42.714;23.310;2023-02-01T19:07:40;15.68;;;7.72;;
20104;SDS011;10212;42.714;23.310;2023-02-01T19:17:42;17.77;;;9.02;;
20104;SDS011;10212;42.714;23.310;2023-02-01T19:27:44;13.25;;;7.60;;
20104;SDS011;10212;42.714;23.310;2023-02-01T19:37:46;13.05;;;5.90;;
20104;SDS011;10212;42.714;23.310;2023-02-01T19:47:47;16.00;;;7.18;;
20104;SDS011;10212;42.714;23.310;2023-02-01T19:57:48;13.63;;;7.43;;
20104;SDS011;10212;42.714;23.310;2023-02-01T20:07:49;12.90;;;5.80;;
20104;SDS011;10212;42.714;23.310;2023-02-01T20:17:51;13.45;;;5.90;;
20104;SDS011;10212;42.714;23.310;2023-02-01T20:27:51;12.57;;;6.00;;
20104;SDS011;10212;42.714;23.310;2023-02-01T20:37:52;11.63;;;5.68;;
20104;SDS011;10212;42.714;23.310;2023-02-01T20:47:53;19.80;;;9.85;;
20104;SDS011;10212;42.714;23.310;2023-02-01T20:57:53;19.95;;;9.75;;
20104;SDS011;10212;42.714;23.310;2023-02-01T21:07:54;20.10;;;10.57;;
20104;SDS011;10212;42.714;23.310;2023-02-01T21:17:55;19.35;;;8.88;;
20104;SDS011;10212;42.714;23.310;2023-02-01T21:27:55;22.35;;;10.25;;
20104;SDS011;10212;42.714;23.310;2023-02-01T21:37:56;18.48;;;8.80;;
20104;SDS011;10212;42.714;23.310;2023-02-01T21:47:56;14.48;;;7.28;;
20104;SDS011;10212;42.714;23.310;2023-02-01T21:57:57;15.40;;;8.55;;
20104;SDS011;10212;42.714;23.310;2023-02-01T22:07:57;19.17;;;9.02;;
20104;SDS011;10212;42.714;23.310;2023-02-01T22:17:58;17.35;;;8.60;;
20104;SDS011;10212;42.714;23.310;2023-02-01T22:27:58;21.88;;;9.45;;
20104;SDS011;10212;42.714;23.310;2023-02-01T22:37:58;23.17;;;10.93;;
20104;SDS011;10212;42.714;23.310;2023-02-01T22:47:59;15.13;;;7.18;;
20104;SDS011;10212;42.714;23.310;2023-02-01T22:58:00;8.57;;;2.40;;
20104;SDS011;10212;42.714;23.310;2023-02-01T23:08:00;7.47;;;2.58;;
20104;SDS011;10212;42.714;23.310;2023-02-01T23:18:00;8.57;;;2.92;;
20104;SDS011;10212;42.714;23.310;2023-02-01T23:28:01;4.22;;;1.73;;
20104;SDS011;10212;42.714;23.310;2023-02-01T23:38:01;7.60;;;3.35;;
20104;SDS011;10212;42.714;23.310;2023-02-01T23:48:02;11.75;;;3.85;;
20104;SDS011;10212;42.714;23.310;2023-02-01T23:58:02;8.90;;;3.22;;
